Time;durP1;ratioP1;P1;durP2;ratioP2;P2;SDS_P1;SDS_P2;PMS_P1;PMS_P2;Temp;Humidity;BMP_temperature;BMP_pressure;BME280_temperature;BME280_humidity;BME280_pressure;Samples;Min_cycle;Max_cycle;Signal;HPM_P1;HPM_P2
2022/05/24 00:01:46;;;;;;;13.25;4.78;;;;;;;23.71;36.52;101011.75;4962259;28;20035;-56
2022/05/24 00:04:12;;;;;;;16.15;4.57;;;;;;;22.97;36.64;101002.00;4964789;28;20038;-55
2022/05/24 00:06:38;;;;;;;17.23;4.90;;;;;;;22.75;37.88;100999.66;4964984;28;20082;-56
2022/05/24 00:09:04;;;;;;;22.00;5.35;;;;;;;23.07;38.05;101002.72;4969670;28;20039;-56
2022/05/24 00:11:31;;;;;;;14.43;4.72;;;;;;;22.63;37.24;100998.09;4954451;28;20031;-55
2022/05/24 00:13:58;;;;;;;16.98;5.05;;;;;;;22.95;37.53;100993.28;4954392;29;20626;-56
2022/05/24 00:16:24;;;;;;;19.67;5.30;;;;;;;22.38;37.99;100982.72;4972545;28;20056;-56
2022/05/24 00:18:50;;;;;;;20.38;5.70;;;;;;;22.49;38.34;100985.41;4971221;28;20025;-57
2022/05/24 00:21:17;;;;;;;18.42;5.30;;;;;;;22.52;38.43;100982.09;4970081;28;20224;-67
2022/05/24 00:23:43;;;;;;;13.40;4.90;;;;;;;22.32;38.10;100985.72;4972134;28;20034;-64
2022/05/24 00:26:16;;;;;;;12.43;4.80;;;;;;;22.61;38.61;100983.13;4972399;28;20117;-63
2022/05/24 00:28:42;;;;;;;18.00;4.78;;;;;;;22.48;37.56;100978.28;4971890;28;20482;-55
2022/05/24 00:31:08;;;;;;;20.23;5.07;;;;;;;22.39;38.88;100973.44;4971881;28;20038;-56
2022/05/24 00:33:34;;;;;;;12.27;4.75;;;;;;;22.45;38.24;100979.69;4971707;28;20402;-56
2022/05/24 00:36:01;;;;;;;17.90;5.50;;;;;;;21.97;38.08;100967.59;4970636;28;20089;-60
2022/05/24 00:38:33;;;;;;;17.55;5.28;;;;;;;22.07;39.49;100975.75;4972118;28;20423;-57
2022/05/24 00:41:25;;;;;;;13.43;5.10;;;;;;;22.20;39.25;100966.97;4956114;28;20501;-57
2022/05/24 00:43:57;;;;;;;18.23;5.57;;;;;;;22.12;39.02;100965.66;4951419;28;20483;-57
2022/05/24 00:46:47;;;;;;;17.88;5.97;;;;;;;21.83;39.66;100959.22;4971814;28;20622;-57
2022/05/24 00:49:27;;;;;;;17.63;4.72;;;;;;;21.53;39.79;100963.66;4970853;28;20495;-57
2022/05/24 00:52:04;;;;;;;18.98;5.22;;;;;;;21.53;40.98;100955.47;4966288;28;20167;-57
2022/05/24 00:54:31;;;;;;;23.83;5.28;;;;;;;21.49;40.57;100948.16;4972536;28;20106;-57
2022/05/24 00:57:11;;;;;;;16.27;5.55;;;;;;;21.44;40.37;100948.19;4973486;28;20038;-57
2022/05/24 00:59:56;;;;;;;18.67;5.68;;;;;;;21.40;40.61;100938.91;4971915;28;20035;-57
2022/05/24 01:02:22;;;;;;;14.93;5.20;;;;;;;21.57;39.79;100942.13;4972487;28;20027;-57
2022/05/24 01:04:49;;;;;;;19.35;5.63;;;;;;;21.37;40.08;100944.91;4972563;28;20402;-57
2022/05/24 01:07:15;;;;;;;15.07;5.05;;;;;;;21.35;39.48;100943.28;4956258;28;20019;-58
2022/05/24 01:09:56;;;;;;;20.73;5.55;;;;;;;21.17;40.19;100938.38;4971572;28;20027;-57
2022/05/24 01:12:38;;;;;;;18.02;5.35;;;;;;;21.16;40.27;100944.94;4956810;28;20494;-57
2022/05/24 01:15:08;;;;;;;18.40;5.20;;;;;;;21.10;40.88;100929.69;4936654;29;20061;-58
2022/05/24 01:17:36;;;;;;;16.55;5.10;;;;;;;21.12;40.43;100943.03;4953356;28;20107;-58
2022/05/24 01:20:05;;;;;;;17.73;5.00;;;;;;;21.26;40.41;100935.91;4970590;28;20518;-58
2022/05/24 01:23:05;;;;;;;17.85;5.13;;;;;;;21.06;41.20;100931.31;4955211;28;20027;-56
2022/05/24 01:25:36;;;;;;;25.88;6.68;;;;;;;20.98;40.64;100940.84;4969490;28;20035;-58
2022/05/24 01:28:10;;;;;;;16.63;5.50;;;;;;;20.80;41.17;100925.06;4964350;28;20118;-58
2022/05/24 01:30:36;;;;;;;21.67;6.03;;;;;;;21.08;40.31;100915.53;4941476;28;20031;-59
2022/05/24 01:38:33;;;;;;;17.70;5.20;;;;;;;21.01;42.29;100918.53;4972292;28;20055;-59
2022/05/24 01:41:00;;;;;;;17.13;5.32;;;;;;;20.97;40.58;100916.63;4972537;28;20034;-59
2022/05/24 01:43:31;;;;;;;15.40;5.35;;;;;;;21.08;41.27;100912.81;4972040;28;20066;-59
2022/05/24 01:46:03;;;;;;;22.75;5.38;;;;;;;21.15;40.69;100899.72;4955018;28;20027;-59
2022/05/24 01:48:54;;;;;;;25.40;5.60;;;;;;;21.31;40.51;100904.06;4957086;28;20024;-58
2022/05/24 01:51:26;;;;;;;18.25;5.93;;;;;;;21.02;40.70;100905.75;4970398;28;20022;-58
2022/05/24 01:53:57;;;;;;;18.98;5.60;;;;;;;21.17;40.33;100900.28;4971473;28;20022;-57
2022/05/24 01:56:47;;;;;;;15.48;5.30;;;;;;;21.31;40.39;100895.91;4974403;28;20073;-58
2022/05/24 01:59:16;;;;;;;22.25;5.35;;;;;;;20.96;40.47;100898.66;4959628;28;20054;-58
2022/05/24 02:01:55;;;;;;;20.33;6.35;;;;;;;20.95;40.59;100889.69;4996273;28;20041;-58
2022/05/24 02:04:24;;;;;;;18.08;5.20;;;;;;;20.83;41.10;100889.97;4995761;28;20030;-58
2022/05/24 02:07:12;;;;;;;22.00;5.40;;;;;;;20.81;41.00;100894.03;4996200;28;20482;-58
2022/05/24 02:09:45;;;;;;;17.02;5.65;;;;;;;21.15;40.32;100891.56;4995964;28;20026;-57
2022/05/24 02:12:36;;;;;;;23.25;5.13;;;;;;;21.23;41.29;100910.06;4986078;28;20426;-58
2022/05/24 02:15:28;;;;;;;16.88;5.18;;;;;;;21.45;40.31;100896.16;4939508;29;20383;-57
2022/05/24 02:18:13;;;;;;;17.98;6.15;;;;;;;21.38;40.00;100894.78;4956827;29;20106;-58
2022/05/24 02:20:42;;;;;;;24.48;5.53;;;;;;;21.72;39.78;100901.25;4956711;29;20031;-58
2022/05/24 02:23:11;;;;;;;19.13;4.97;;;;;;;21.72;38.86;100897.69;4969760;28;20026;-58
2022/05/24 02:25:55;;;;;;;16.55;5.57;;;;;;;21.65;38.82;100906.16;4995456;28;20117;-58
2022/05/24 02:28:30;;;;;;;20.25;6.15;;;;;;;21.77;39.10;100903.94;4994969;28;20034;-58
2022/05/24 02:31:00;;;;;;;21.35;6.07;;;;;;;21.64;39.31;100896.34;4980984;28;20109;-58
2022/05/24 02:33:26;;;;;;;18.45;5.53;;;;;;;21.58;40.01;100901.00;4976091;28;20065;-58
2022/05/24 02:35:53;;;;;;;13.23;5.78;;;;;;;21.32;40.52;100904.88;4975906;28;20026;-58
2022/05/24 02:38:19;;;;;;;15.63;5.38;;;;;;;21.22;40.68;100908.44;4975936;28;20482;-58
2022/05/24 02:43:30;;;;;;;18.50;5.82;;;;;;;21.11;40.21;100906.00;4977291;28;20443;-58
2022/05/24 02:45:57;;;;;;;17.52;5.47;;;;;;;21.15;40.40;100913.31;4976635;28;20031;-58
2022/05/24 02:48:23;;;;;;;19.27;5.60;;;;;;;21.02;40.81;100909.28;4977439;28;20029;-57
2022/05/24 02:50:49;;;;;;;15.60;5.00;;;;;;;20.63;41.76;100911.72;4975639;28;20026;-58
2022/05/24 02:53:16;;;;;;;22.55;6.00;;;;;;;20.04;42.62;100912.13;4973676;28;20038;-58
2022/05/24 02:55:42;;;;;;;14.90;6.15;;;;;;;19.82;43.50;100920.47;4962920;28;20114;-59
2022/05/24 02:58:09;;;;;;;23.80;5.75;;;;;;;19.48;44.29;100917.28;4955919;28;20027;-58
2022/05/24 03:00:35;;;;;;;19.98;6.18;;;;;;;19.46;44.42;100911.31;4986498;28;20026;-58
2022/05/24 03:03:01;;;;;;;19.27;5.78;;;;;;;19.41;44.60;100916.72;4977187;28;20522;-58
2022/05/24 03:05:28;;;;;;;22.90;6.95;;;;;;;19.00;45.61;100913.75;4982816;28;20168;-58
2022/05/24 03:10:40;;;;;;;18.20;5.75;;;;;;;18.54;47.21;100920.63;4990258;28;20045;-58
2022/05/24 03:15:52;;;;;;;18.42;5.93;;;;;;;18.07;47.98;100913.94;4955991;29;20074;-58
2022/05/24 03:18:21;;;;;;;19.77;6.20;;;;;;;17.91;48.53;100918.34;4987048;28;20038;-58
2022/05/24 03:20:48;;;;;;;23.23;6.43;;;;;;;17.71;49.01;100926.19;4989440;28;20034;-57
2022/05/24 03:23:16;;;;;;;30.95;6.55;;;;;;;17.68;49.25;100926.69;4975163;28;20093;-58
2022/05/24 03:25:42;;;;;;;23.80;6.32;;;;;;;17.61;49.77;100924.19;4974709;28;20042;-58
2022/05/24 03:28:09;;;;;;;29.02;7.07;;;;;;;17.07;51.29;100937.47;4974748;28;20459;-58
2022/05/24 03:30:42;;;;;;;27.90;6.70;;;;;;;17.22;51.14;100939.59;4974423;28;20476;-60
2022/05/24 03:33:08;;;;;;;21.60;6.50;;;;;;;17.35;50.50;100933.00;4960653;28;20047;-59
2022/05/24 03:35:34;;;;;;;19.13;7.03;;;;;;;17.22;51.03;100944.19;4973293;28;20490;-59
2022/05/24 03:38:01;;;;;;;22.60;5.97;;;;;;;17.11;51.32;100933.22;4957103;28;20027;-58
2022/05/24 03:40:27;;;;;;;24.27;6.28;;;;;;;17.10;51.29;100947.81;4972125;28;20260;-59
2022/05/24 03:42:54;;;;;;;21.52;6.38;;;;;;;16.95;51.78;100947.56;4974654;28;20094;-59
2022/05/24 03:45:22;;;;;;;26.23;6.75;;;;;;;16.99;51.99;100956.81;4972600;28;20026;-59
2022/05/24 03:47:48;;;;;;;27.77;6.30;;;;;;;16.85;52.46;100950.09;4967611;28;20035;-58
2022/05/24 03:50:23;;;;;;;24.92;6.03;;;;;;;16.72;52.90;100945.00;4961175;28;20072;-58
2022/05/24 03:52:49;;;;;;;;;;;;;;;16.59;53.25;100952.31;4971983;28;20042;-58
2022/05/24 03:55:15;;;;;;;29.38;7.13;;;;;;;16.58;53.72;100957.94;4973885;28;19914;-58
2022/05/24 03:58:00;;;;;;;32.95;6.97;;;;;;;16.72;53.33;100955.81;4974165;28;20031;-58
2022/05/24 04:00:31;;;;;;;26.50;6.47;;;;;;;16.49;53.72;100962.94;4973862;28;20058;-58
2022/05/24 04:02:58;;;;;;;30.15;7.13;;;;;;;16.47;53.75;100956.94;4974228;28;20113;-58
2022/05/24 04:05:24;;;;;;;31.33;6.95;;;;;;;16.36;54.31;100968.63;4973704;28;20058;-58
2022/05/24 04:07:50;;;;;;;33.55;7.18;;;;;;;16.45;54.10;100960.97;4934461;28;20027;-58
2022/05/24 04:10:19;;;;;;;28.35;7.75;;;;;;;16.33;54.37;100975.34;4955665;28;20030;-59
2022/05/24 04:12:46;;;;;;;24.85;6.70;;;;;;;16.20;54.89;100969.38;4973815;28;20034;-58
2022/05/24 04:15:13;;;;;;;26.50;7.00;;;;;;;16.13;55.42;100974.94;4972904;28;20027;-58
2022/05/24 04:17:39;;;;;;;28.02;7.25;;;;;;;16.36;54.66;100969.44;4973753;28;20062;-59
2022/05/24 04:20:06;;;;;;;30.48;6.68;;;;;;;16.41;54.89;100976.81;4972716;28;20030;-58
2022/05/24 04:22:34;;;;;;;29.13;6.90;;;;;;;16.15;55.77;100974.69;4972765;28;20027;-58
2022/05/24 04:25:00;;;;;;;23.45;7.15;;;;;;;15.78;57.09;100975.03;4974025;28;20023;-58
2022/05/24 04:27:27;;;;;;;26.42;7.70;;;;;;;16.00;56.21;100975.22;4971953;28;20053;-58
2022/05/24 04:29:53;;;;;;;24.73;7.05;;;;;;;16.03;56.97;100969.31;4970791;28;20432;-58
2022/05/24 04:32:21;;;;;;;25.98;7.18;;;;;;;15.84;57.45;100971.38;4973591;28;20513;-58
2022/05/24 04:34:47;;;;;;;33.30;6.97;;;;;;;15.92;57.43;100971.00;4972148;28;20053;-57
2022/05/24 04:37:14;;;;;;;34.67;7.72;;;;;;;15.85;57.62;100983.81;4973299;28;20364;-60
2022/05/24 04:39:40;;;;;;;24.25;7.00;;;;;;;15.90;57.38;100983.09;4971794;28;20034;-60
2022/05/24 04:42:19;;;;;;;25.95;7.25;;;;;;;15.69;58.25;100982.63;4973278;28;20398;-59
2022/05/24 04:44:47;;;;;;;35.92;8.88;;;;;;;15.67;58.45;100981.25;4972211;28;20069;-58
2022/05/24 04:47:13;;;;;;;27.40;7.65;;;;;;;15.68;58.43;100988.28;4970873;28;20038;-59
2022/05/24 04:49:46;;;;;;;23.77;6.30;;;;;;;15.67;58.53;100992.03;4965251;28;20034;-59
2022/05/24 04:52:14;;;;;;;24.85;6.68;;;;;;;15.80;58.08;100992.59;4973048;28;20069;-58
2022/05/24 04:54:43;;;;;;;21.92;7.03;;;;;;;15.66;58.44;100988.53;4971524;28;20062;-58
2022/05/24 04:57:10;;;;;;;21.60;6.70;;;;;;;15.62;58.55;100992.72;4973171;28;20027;-59
2022/05/24 04:59:37;;;;;;;25.58;7.90;;;;;;;15.46;59.31;100986.16;4971347;28;20105;-58
2022/05/24 05:02:05;;;;;;;31.67;8.18;;;;;;;15.50;58.85;100986.50;4950315;28;20441;-58
2022/05/24 05:04:31;;;;;;;29.52;7.90;;;;;;;15.53;58.64;100986.03;4963593;28;20041;-57
2022/05/24 05:06:58;;;;;;;29.92;7.75;;;;;;;15.39;58.85;100990.84;4960393;28;20110;-58
2022/05/24 05:09:24;;;;;;;27.40;8.10;;;;;;;15.39;59.03;101001.63;4963300;28;20118;-58
2022/05/24 05:11:51;;;;;;;32.08;8.85;;;;;;;15.44;59.11;100993.66;4953800;28;20035;-58
2022/05/24 05:14:18;;;;;;;27.75;8.05;;;;;;;15.27;59.64;100998.13;4964635;28;20106;-58
2022/05/24 05:16:44;;;;;;;29.88;8.52;;;;;;;15.21;59.95;100993.63;4972853;28;20109;-58
2022/05/24 05:19:12;;;;;;;22.50;6.93;;;;;;;15.20;60.20;100989.28;4954416;28;20023;-57
2022/05/24 05:21:40;;;;;;;26.60;7.35;;;;;;;14.98;60.59;100989.84;4971954;28;20104;-58
2022/05/24 05:24:07;;;;;;;29.52;7.50;;;;;;;15.00;60.48;100997.72;4967652;28;20081;-58
2022/05/24 05:26:34;;;;;;;33.83;7.90;;;;;;;15.01;60.60;100991.25;5008841;23;20056;-57
2022/05/24 05:29:00;;;;;;;31.40;8.40;;;;;;;15.01;60.50;100993.97;5069800;28;20106;-57
2022/05/24 05:31:27;;;;;;;30.92;7.28;;;;;;;15.00;60.31;100997.72;5066854;28;20036;-57
2022/05/24 05:33:57;;;;;;;26.13;6.93;;;;;;;14.94;60.54;101001.34;5071525;28;20021;-57
2022/05/24 05:36:25;;;;;;;28.23;6.72;;;;;;;14.84;60.76;101004.59;5069312;28;20036;-57
2022/05/24 05:38:51;;;;;;;32.90;6.93;;;;;;;15.00;60.34;100998.53;5071064;28;20050;-57
2022/05/24 05:41:21;;;;;;;28.02;8.00;;;;;;;14.90;60.54;101000.97;5069821;28;20170;-57
2022/05/24 05:43:47;;;;;;;38.53;8.23;;;;;;;14.91;60.58;100999.91;5063163;28;20021;-57
2022/05/24 05:46:15;;;;;;;31.15;7.43;;;;;;;14.91;60.65;100997.22;5048614;28;20387;-57
2022/05/24 05:48:42;;;;;;;27.27;7.15;;;;;;;14.88;60.63;101003.09;5043830;28;20036;-57
2022/05/24 05:51:10;;;;;;;26.58;7.05;;;;;;;14.99;59.79;101006.81;5050820;28;20029;-57
2022/05/24 05:53:37;;;;;;;27.65;7.25;;;;;;;14.93;60.48;101000.50;5049843;28;20033;-58
2022/05/24 05:56:04;;;;;;;28.75;7.28;;;;;;;14.98;60.55;101002.50;5051109;28;20041;-57
2022/05/24 05:58:31;;;;;;;28.13;7.70;;;;;;;15.02;60.63;101003.69;5050059;28;20032;-57
2022/05/24 06:01:00;;;;;;;22.20;6.78;;;;;;;15.06;60.69;100994.09;5050909;28;20021;-58
2022/05/24 06:03:26;;;;;;;28.00;7.82;;;;;;;15.03;61.23;100992.66;5049612;28;20029;-58
2022/05/24 06:05:53;;;;;;;34.80;7.07;;;;;;;14.90;61.88;100994.75;5050085;28;20036;-58
2022/05/24 06:08:20;;;;;;;28.83;7.50;;;;;;;14.89;62.19;100995.81;5048683;28;20041;-59
2022/05/24 06:10:47;;;;;;;32.20;7.40;;;;;;;14.88;62.23;100995.00;5049732;28;20033;-58
2022/05/24 06:13:13;;;;;;;27.63;7.60;;;;;;;14.99;62.32;100990.66;5051279;28;20029;-58
2022/05/24 06:15:39;;;;;;;24.58;7.13;;;;;;;15.10;62.20;100997.13;5049563;28;20025;-58
2022/05/24 06:18:05;;;;;;;20.80;6.82;;;;;;;15.05;61.62;100990.56;5050831;28;20112;-57
2022/05/24 06:20:32;;;;;;;36.13;8.13;;;;;;;15.05;61.76;100987.06;5049734;28;20037;-58
2022/05/24 06:22:59;;;;;;;25.73;6.88;;;;;;;14.76;61.64;100983.34;5050096;28;20032;-58
2022/05/24 06:25:27;;;;;;;29.63;7.32;;;;;;;14.89;60.84;100976.94;5051047;28;20104;-58
2022/05/24 06:27:55;;;;;;;28.52;7.45;;;;;;;14.79;60.84;100985.59;5049650;28;20044;-58
2022/05/24 06:30:23;;;;;;;24.75;5.75;;;;;;;14.81;60.75;100977.25;5050862;28;20035;-58
2022/05/24 06:32:51;;;;;;;25.02;7.22;;;;;;;14.72;60.77;100979.47;5051115;28;20072;-58
2022/05/24 06:35:19;;;;;;;24.45;6.65;;;;;;;14.92;60.16;100971.91;5054659;28;20055;-58
2022/05/24 06:37:46;;;;;;;33.10;6.85;;;;;;;14.74;60.31;100971.97;5053322;28;20488;-58
2022/05/24 06:40:17;;;;;;;26.33;7.25;;;;;;;14.89;59.90;100964.28;5054090;28;20457;-58
2022/05/24 06:42:44;;;;;;;30.00;7.40;;;;;;;14.85;60.12;100968.50;5052455;28;20473;-58
2022/05/24 06:45:11;;;;;;;27.10;7.32;;;;;;;14.82;60.35;100970.81;5045318;28;20029;-58
2022/05/24 06:47:38;;;;;;;22.17;6.30;;;;;;;14.81;59.70;100961.91;5038223;28;20036;-58
2022/05/24 06:50:05;;;;;;;26.38;6.63;;;;;;;14.78;60.04;100967.78;5053828;28;20021;-58
2022/05/24 06:52:32;;;;;;;27.13;7.22;;;;;;;14.84;60.12;100968.72;5052414;28;20029;-58
2022/05/24 06:54:58;;;;;;;30.88;7.10;;;;;;;14.76;60.14;100959.09;5054137;28;20515;-57
2022/05/24 06:57:24;;;;;;;25.65;6.63;;;;;;;14.56;60.86;100969.34;5052502;28;20041;-57
2022/05/24 07:02:35;;;;;;;26.23;7.80;;;;;;;14.78;60.04;100970.47;5053911;28;20044;-57
2022/05/24 07:05:09;;;;;;;19.13;6.25;;;;;;;14.85;59.64;100973.06;5054008;28;20024;-57
2022/05/24 07:07:36;;;;;;;24.00;7.10;;;;;;;14.88;59.45;100976.13;5053041;28;20120;-57
2022/05/24 07:10:06;;;;;;;22.98;6.75;;;;;;;14.88;58.96;100981.53;5051898;28;20665;-58
2022/05/24 07:12:32;;;;;;;24.10;6.45;;;;;;;14.70;59.69;100978.88;5053788;28;20017;-58
2022/05/24 07:14:59;;;;;;;20.13;6.60;;;;;;;14.62;59.83;100969.25;5052108;28;20027;-58
2022/05/24 07:17:26;;;;;;;25.92;6.20;;;;;;;14.59;59.82;100976.97;5052305;28;20086;-57
2022/05/24 07:19:52;;;;;;;27.67;6.75;;;;;;;14.31;60.71;100983.72;5050614;28;20061;-58
2022/05/24 07:22:19;;;;;;;27.48;6.82;;;;;;;14.42;60.34;100974.88;5033136;28;20021;-58
2022/05/24 07:24:49;;;;;;;25.38;6.47;;;;;;;14.29;61.53;100969.69;5038816;28;20028;-57
2022/05/24 07:27:17;;;;;;;26.50;7.18;;;;;;;14.27;62.30;100978.00;5043049;28;20049;-57
2022/05/24 07:29:44;;;;;;;30.60;7.38;;;;;;;14.46;62.13;100976.06;5038209;28;20386;-58
2022/05/24 07:32:10;;;;;;;32.85;7.30;;;;;;;14.49;62.11;100977.50;5033146;28;20116;-57
2022/05/24 07:34:38;;;;;;;26.33;6.57;;;;;;;14.45;62.55;100979.81;5033440;28;20033;-57
2022/05/24 07:37:07;;;;;;;27.27;7.38;;;;;;;14.45;63.02;100985.22;5048143;28;20108;-58
2022/05/24 07:39:33;;;;;;;28.65;6.22;;;;;;;14.25;63.78;100982.75;5052820;28;20058;-57
2022/05/24 07:47:31;;;;;;;26.60;7.05;;;;;;;14.46;63.88;100976.06;5038762;28;20393;-57
2022/05/24 07:49:58;;;;;;;27.75;6.80;;;;;;;14.52;63.71;100968.97;5050702;28;20164;-58
2022/05/24 07:52:24;;;;;;;21.02;7.00;;;;;;;14.52;63.52;100977.06;5049827;28;20036;-58
2022/05/24 07:54:51;;;;;;;25.55;7.50;;;;;;;14.55;63.46;100975.78;5032216;28;20377;-58
2022/05/24 07:57:17;;;;;;;26.83;7.63;;;;;;;14.46;63.56;100970.69;5044061;28;20037;-58
2022/05/24 07:59:47;;;;;;;25.13;7.13;;;;;;;14.21;63.70;100968.13;5051991;28;20057;-57
2022/05/24 08:02:21;;;;;;;24.20;6.32;;;;;;;14.26;62.94;100964.75;5049613;28;20039;-58
2022/05/24 08:04:47;;;;;;;25.48;6.35;;;;;;;14.42;62.37;100965.97;5037475;28;20033;-58
2022/05/24 08:07:13;;;;;;;32.20;6.95;;;;;;;14.43;62.21;100971.13;5032873;28;20022;-58
2022/05/24 08:09:40;;;;;;;21.08;6.28;;;;;;;14.31;62.11;100967.56;5038165;28;20156;-58
2022/05/24 08:12:06;;;;;;;21.70;6.70;;;;;;;14.29;62.09;100974.25;5052690;28;20029;-57
2022/05/24 08:14:32;;;;;;;30.77;8.43;;;;;;;14.27;63.26;100967.22;5050429;28;20061;-57
2022/05/24 08:16:59;;;;;;;30.30;7.50;;;;;;;14.23;64.52;100968.72;5051246;28;20052;-58
2022/05/24 08:19:25;;;;;;;26.65;7.50;;;;;;;14.39;64.31;100964.59;5052167;28;20028;-57
2022/05/24 08:21:51;;;;;;;23.38;7.70;;;;;;;14.33;65.29;100959.28;5040230;28;20040;-59
2022/05/24 08:24:17;;;;;;;27.58;7.30;;;;;;;14.16;65.56;100964.47;5032811;28;20025;-59
2022/05/24 08:26:43;;;;;;;39.40;8.57;;;;;;;14.06;66.03;100956.13;5035817;28;20069;-59
2022/05/24 08:29:09;;;;;;;33.78;7.85;;;;;;;14.10;65.61;100952.75;5051812;28;20043;-58
2022/05/24 08:31:36;;;;;;;32.47;7.72;;;;;;;14.16;65.49;100959.09;5052260;28;20021;-58
2022/05/24 08:34:02;;;;;;;31.70;7.68;;;;;;;14.07;65.71;100945.13;5052349;28;20075;-58
2022/05/24 08:36:28;;;;;;;26.70;6.82;;;;;;;14.12;65.13;100947.13;5052149;28;20048;-58
2022/05/24 08:38:54;;;;;;;22.42;6.80;;;;;;;14.13;65.29;100951.47;5051952;28;20033;-59
2022/05/24 08:41:54;;;;;;;37.63;8.20;;;;;;;14.07;65.49;100949.69;5051990;28;20035;-58
2022/05/24 08:50:16;;;;;;;27.60;6.97;;;;;;;13.92;65.95;100939.28;5047273;28;20417;-59
2022/05/24 08:52:48;;;;;;;32.05;8.40;;;;;;;13.98;65.67;100933.81;5045944;28;20040;-58
2022/05/24 08:55:16;;;;;;;24.45;6.80;;;;;;;13.91;66.18;100938.47;5051880;28;20025;-58
2022/05/24 08:57:53;;;;;;;27.92;7.95;;;;;;;13.82;66.48;100931.75;5049045;28;20064;-58
2022/05/24 09:00:24;;;;;;;24.83;7.15;;;;;;;13.87;66.18;100947.22;5050214;28;20025;-58
2022/05/24 09:02:50;;;;;;;25.02;7.30;;;;;;;13.91;65.89;100934.97;5051081;28;20036;-58
2022/05/24 09:05:33;;;;;;;30.40;7.60;;;;;;;13.88;66.27;100932.72;5051757;28;20033;-58
2022/05/24 09:08:26;;;;;;;30.05;7.88;;;;;;;13.91;66.49;100934.97;5050263;28;20032;-57
2022/05/24 09:11:20;;;;;;;34.55;8.15;;;;;;;13.87;66.27;100923.81;5049957;28;20029;-58
2022/05/24 09:14:04;;;;;;;37.50;8.65;;;;;;;13.82;66.83;100926.34;5031370;28;20033;-58
2022/05/24 09:17:05;;;;;;;27.60;7.03;;;;;;;13.82;67.34;100925.53;5043025;28;20028;-58
2022/05/24 09:19:36;;;;;;;34.17;7.35;;;;;;;13.87;66.99;100915.75;5051658;28;20063;-58
2022/05/24 09:22:07;;;;;;;28.50;7.78;;;;;;;14.02;66.49;100930.69;5048900;28;20029;-58
2022/05/24 09:24:47;;;;;;;31.27;8.20;;;;;;;13.80;67.06;100931.16;5050469;28;20489;-57
2022/05/24 09:27:49;;;;;;;26.88;7.90;;;;;;;13.84;66.62;100923.47;5048700;28;20107;-58
2022/05/24 09:30:26;;;;;;;30.17;7.72;;;;;;;13.84;67.32;100912.69;5031427;28;20040;-57
2022/05/24 09:32:53;;;;;;;34.22;8.50;;;;;;;13.72;68.68;100915.34;5036437;28;20025;-57
2022/05/24 09:35:26;;;;;;;30.23;8.68;;;;;;;13.55;69.11;100920.47;5051166;28;20477;-57
2022/05/24 09:38:04;;;;;;;35.58;8.75;;;;;;;13.23;70.52;100911.72;5046892;28;20025;-58
2022/05/24 09:40:43;;;;;;;27.00;7.22;;;;;;;13.41;69.55;100903.66;5030110;28;20049;-58
2022/05/24 09:43:29;;;;;;;32.88;8.55;;;;;;;13.19;70.79;100905.09;5030211;28;20033;-58
2022/05/24 09:46:07;;;;;;;33.88;7.97;;;;;;;13.06;71.14;100899.84;5030958;28;20037;-57
2022/05/24 09:48:37;;;;;;;34.45;7.78;;;;;;;13.29;70.43;100902.75;5032964;28;20124;-57
2022/05/24 09:51:11;;;;;;;29.40;7.43;;;;;;;13.41;69.88;100908.22;5033096;28;20382;-57
2022/05/24 09:53:51;;;;;;;32.53;8.00;;;;;;;13.23;70.25;100895.59;5030748;28;20029;-57
2022/05/24 09:56:33;;;;;;;45.58;9.45;;;;;;;13.43;69.63;100896.19;5030532;28;20053;-58
2022/05/24 09:59:18;;;;;;;27.73;7.20;;;;;;;13.52;69.33;100887.81;5028796;28;20481;-57
2022/05/24 10:01:48;;;;;;;28.70;8.35;;;;;;;13.47;69.79;100886.63;5032777;28;20081;-57
2022/05/24 10:04:20;;;;;;;28.00;8.27;;;;;;;13.38;69.50;100882.59;5032877;28;20032;-57
2022/05/24 10:07:02;;;;;;;32.03;7.80;;;;;;;13.43;69.21;100890.81;5031103;28;20021;-57
2022/05/24 10:10:00;;;;;;;39.05;8.95;;;;;;;13.52;69.39;100880.59;5046790;28;20411;-57
2022/05/24 10:12:49;;;;;;;26.85;7.95;;;;;;;13.61;69.70;100886.50;5033012;28;20517;-57
2022/05/24 10:15:26;;;;;;;27.45;8.05;;;;;;;13.69;69.38;100892.38;5053531;28;20040;-57
2022/05/24 10:18:30;;;;;;;30.77;8.18;;;;;;;13.58;69.34;100885.06;5054869;28;20146;-57
2022/05/24 10:21:03;;;;;;;31.90;7.32;;;;;;;13.50;69.33;100895.31;4998073;28;20316;-57
2022/05/24 10:23:40;;;;;;;34.53;7.55;;;;;;;13.62;69.11;100893.50;5037464;28;20108;-58
2022/05/24 10:26:39;;;;;;;36.72;7.72;;;;;;;13.55;68.94;100892.75;5053189;28;20045;-58
2022/05/24 10:29:25;;;;;;;37.15;7.85;;;;;;;13.52;68.87;100890.53;5052570;28;20037;-58
2022/05/24 10:31:57;;;;;;;35.50;8.40;;;;;;;13.47;69.26;100886.63;5054479;28;20029;-57
2022/05/24 10:41:12;;;;;;;31.65;6.60;;;;;;;13.39;69.38;100883.44;5035563;28;20055;-57
2022/05/24 10:43:56;;;;;;;29.05;7.68;;;;;;;13.31;70.29;100889.09;5054557;28;20021;-57
2022/05/24 10:46:43;;;;;;;29.23;8.02;;;;;;;13.20;71.23;100885.22;5052664;28;20033;-57
2022/05/24 10:49:18;;;;;;;29.70;8.07;;;;;;;13.06;71.26;100889.09;5044685;28;20550;-58
2022/05/24 10:52:00;;;;;;;28.15;8.73;;;;;;;13.19;70.93;100887.09;5051912;28;20032;-57
2022/05/24 10:55:08;;;;;;;24.25;6.88;;;;;;;13.17;70.68;100891.06;5052655;28;20037;-57
2022/05/24 10:57:48;;;;;;;35.65;7.40;;;;;;;13.25;70.47;100893.47;5047084;28;20029;-58
2022/05/24 11:00:22;;;;;;;38.30;9.48;;;;;;;13.17;71.22;100902.63;5052606;28;20056;-58
2022/05/24 11:02:59;;;;;;;27.37;7.73;;;;;;;13.14;71.24;100902.25;5051200;28;20492;-58
2022/05/24 11:05:31;;;;;;;37.90;8.73;;;;;;;13.23;70.17;100909.03;5052694;28;20017;-57
2022/05/24 11:08:22;;;;;;;32.03;8.02;;;;;;;13.31;70.18;100911.41;5053554;28;20033;-57
2022/05/24 11:10:50;;;;;;;28.23;8.63;;;;;;;13.08;71.09;100913.88;5038800;28;20041;-58
2022/05/24 11:13:47;;;;;;;28.15;7.72;;;;;;;13.13;70.57;100906.78;5052161;28;20373;-57
2022/05/24 11:16:35;;;;;;;41.35;7.50;;;;;;;12.99;71.00;100899.06;5052777;28;20037;-58
2022/05/24 11:19:02;;;;;;;24.88;8.25;;;;;;;13.05;71.57;100901.72;5052127;28;20533;-58
2022/05/24 11:21:44;;;;;;;37.80;8.43;;;;;;;12.88;71.91;100901.47;5053579;28;20057;-57
2022/05/24 11:24:20;;;;;;;31.70;8.38;;;;;;;13.08;70.82;100898.56;5045915;28;20469;-58
2022/05/24 11:26:54;;;;;;;30.92;8.35;;;;;;;12.80;71.83;100907.09;5046875;28;20124;-58
2022/05/24 11:29:23;;;;;;;36.08;8.27;;;;;;;12.95;71.92;100912.13;5033310;28;20033;-58
2022/05/24 11:32:01;;;;;;;31.25;8.30;;;;;;;13.14;71.11;100913.81;5040083;28;20354;-58
2022/05/24 11:34:39;;;;;;;36.50;8.35;;;;;;;13.03;71.43;100911.03;5044011;28;20130;-58
2022/05/24 11:37:34;;;;;;;32.22;8.70;;;;;;;13.00;71.37;100908.81;5049159;28;20025;-58
2022/05/24 11:40:38;;;;;;;41.10;8.60;;;;;;;12.86;71.72;100903.53;5053126;28;20029;-58
2022/05/24 11:43:10;;;;;;;32.47;7.68;;;;;;;12.97;71.41;100901.16;5033513;28;20029;-58
2022/05/24 11:46:02;;;;;;;43.33;10.25;;;;;;;13.18;70.95;100904.28;5033698;28;20029;-59
2022/05/24 11:48:47;;;;;;;30.23;9.68;;;;;;;13.23;70.99;100913.56;5034638;28;20395;-58
2022/05/24 11:51:42;;;;;;;36.35;8.52;;;;;;;13.34;70.32;100919.03;5040962;28;20044;-58
2022/05/24 11:54:18;;;;;;;34.30;9.25;;;;;;;13.23;70.36;100916.25;5047046;28;20034;-58
2022/05/24 11:57:03;;;;;;;31.23;8.90;;;;;;;13.08;70.42;100924.63;5052867;28;20051;-58
2022/05/24 11:59:43;;;;;;;35.80;8.80;;;;;;;12.91;71.25;100919.81;5053088;28;20079;-58
2022/05/24 12:08:38;;;;;;;37.50;10.30;;;;;;;12.96;71.30;100924.53;5043302;28;20409;-58
2022/05/24 12:11:10;;;;;;;30.48;8.75;;;;;;;12.88;71.51;100922.94;5053075;28;20473;-58
2022/05/24 12:13:54;;;;;;;33.88;9.32;;;;;;;13.00;70.99;100920.38;5052383;28;20082;-58
2022/05/24 12:16:53;;;;;;;37.15;9.63;;;;;;;12.92;71.13;100920.63;5048180;28;20025;-58
2022/05/24 12:19:38;;;;;;;43.17;9.05;;;;;;;12.73;71.87;100927.81;5032317;28;20105;-58
2022/05/24 12:22:08;;;;;;;45.95;10.52;;;;;;;12.92;71.85;100931.38;5039466;28;20031;-58